Time;durP1;ratioP1;P1;durP2;ratioP2;P2;SDS_P1;SDS_P2;PMS_P1;PMS_P2;Temp;Humidity;BMP_temperature;BMP_pressure;BME280_temperature;BME280_humidity;BME280_pressure;Samples;Min_cycle;Max_cycle;Signal;HPM_P1;HPM_P2
2023/06/26 00:02:09;;;;;;;7.38;5.82;;;;;;;22.98;76.25;100982.66;5008962;28;20030;-75
2023/06/26 00:04:37;;;;;;;9.65;5.25;;;;;;;22.94;76.42;100990.25;5010064;28;20041;-75
2023/06/26 00:07:03;;;;;;;9.05;5.78;;;;;;;22.92;76.68;100984.41;5009508;28;20381;-75
2023/06/26 00:09:29;;;;;;;8.52;5.53;;;;;;;22.89;76.62;100982.22;5009161;28;20105;-75
2023/06/26 00:11:54;;;;;;;10.35;6.05;;;;;;;22.86;76.95;100981.88;4990238;28;20134;-75
2023/06/26 00:14:20;;;;;;;7.35;5.85;;;;;;;22.82;76.90;100981.53;5001711;28;20101;-76
2023/06/26 00:16:46;;;;;;;7.45;5.47;;;;;;;22.81;77.15;100979.94;5008847;28;20503;-74
2023/06/26 00:19:12;;;;;;;7.93;5.85;;;;;;;22.79;76.88;100986.47;5009367;28;20460;-74
2023/06/26 00:21:37;;;;;;;7.25;5.95;;;;;;;22.71;77.74;100983.16;4990795;28;20029;-75
2023/06/26 00:24:03;;;;;;;9.05;5.68;;;;;;;22.67;77.97;100981.22;5005444;28;20054;-74
2023/06/26 00:26:28;;;;;;;6.70;5.85;;;;;;;22.62;77.89;100984.56;5010021;28;20037;-75
2023/06/26 00:28:54;;;;;;;12.20;6.63;;;;;;;22.56;78.06;100985.47;5003671;28;20464;-74
2023/06/26 00:31:19;;;;;;;8.05;5.70;;;;;;;22.48;78.52;100975.28;4992546;28;20683;-74
2023/06/26 00:33:45;;;;;;;10.00;6.25;;;;;;;22.40;78.47;100975.63;5008081;28;20108;-75
2023/06/26 00:36:10;;;;;;;10.65;6.68;;;;;;;22.35;78.61;100973.66;5001487;28;20060;-75
2023/06/26 00:38:36;;;;;;;8.68;5.90;;;;;;;22.33;78.54;100981.00;4996412;28;20057;-74
2023/06/26 00:41:01;;;;;;;8.95;5.57;;;;;;;22.32;78.38;100984.69;4989705;28;20026;-74
2023/06/26 00:43:28;;;;;;;11.85;6.65;;;;;;;22.31;78.29;100980.44;5009123;28;20034;-74
2023/06/26 00:45:54;;;;;;;8.48;5.82;;;;;;;22.27;78.55;100987.22;5011654;28;20030;-74
2023/06/26 00:48:19;;;;;;;8.60;5.68;;;;;;;22.24;78.90;100971.78;5004507;28;20125;-74
2023/06/26 00:50:45;;;;;;;10.98;6.55;;;;;;;22.22;79.00;100972.00;4999292;28;20038;-75
2023/06/26 00:53:11;;;;;;;8.75;6.10;;;;;;;22.17;79.06;100969.28;5006212;28;20061;-74
2023/06/26 00:55:37;;;;;;;9.60;6.63;;;;;;;22.09;79.58;100969.59;5005755;28;20060;-74
2023/06/26 00:58:02;;;;;;;7.85;5.90;;;;;;;22.06;79.77;100972.72;5009984;28;20029;-74
2023/06/26 01:00:28;;;;;;;8.43;5.68;;;;;;;22.04;79.68;100972.13;4989533;28;20119;-74
2023/06/26 01:02:55;;;;;;;11.18;6.20;;;;;;;22.03;79.57;100970.53;5010913;28;20026;-74
2023/06/26 01:05:21;;;;;;;11.30;5.70;;;;;;;21.98;79.46;100976.47;5007196;28;20045;-74
2023/06/26 01:07:49;;;;;;;9.25;6.03;;;;;;;21.95;79.56;100967.19;5010299;28;20159;-74
2023/06/26 01:10:15;;;;;;;10.52;6.20;;;;;;;21.89;79.71;100968.09;5008184;28;20049;-74
2023/06/26 01:12:41;;;;;;;12.55;6.28;;;;;;;21.82;80.08;100963.94;4992721;28;20059;-74
2023/06/26 01:15:07;;;;;;;10.20;6.30;;;;;;;21.74;80.60;100965.88;5007727;28;20057;-74
2023/06/26 01:17:33;;;;;;;13.52;6.18;;;;;;;21.69;80.71;100955.19;5011096;28;20428;-74
2023/06/26 01:19:59;;;;;;;9.20;6.78;;;;;;;21.61;80.62;100962.66;5003425;28;20100;-74
2023/06/26 01:22:44;;;;;;;10.55;6.13;;;;;;;21.56;80.61;100952.75;5009632;28;20036;-74
2023/06/26 01:25:38;;;;;;;8.15;5.47;;;;;;;21.49;80.88;100955.50;4990280;28;20120;-74
2023/06/26 01:28:05;;;;;;;11.00;6.82;;;;;;;21.43;80.82;100953.72;5005826;28;20034;-74
2023/06/26 01:30:32;;;;;;;10.95;6.22;;;;;;;21.41;81.07;100954.97;5005680;28;20050;-74
2023/06/26 01:32:59;;;;;;;8.45;6.22;;;;;;;21.42;80.88;100957.38;5012310;28;20056;-74
2023/06/26 01:35:26;;;;;;;7.90;6.22;;;;;;;21.41;80.63;100952.34;5006620;28;20629;-74
2023/06/26 01:37:51;;;;;;;8.15;6.03;;;;;;;21.41;80.82;100955.75;5008203;28;20068;-74
2023/06/26 01:40:17;;;;;;;10.82;6.18;;;;;;;21.39;81.17;100955.19;5008830;28;20061;-74
2023/06/26 01:42:42;;;;;;;7.70;5.68;;;;;;;21.37;81.41;100957.25;4992890;28;20130;-74
2023/06/26 01:45:20;;;;;;;8.95;5.82;;;;;;;21.36;81.34;100955.63;5005440;28;20050;-74
2023/06/26 01:47:50;;;;;;;12.55;6.75;;;;;;;21.36;81.33;100960.91;5007588;28;20061;-74
2023/06/26 01:50:23;;;;;;;8.65;6.40;;;;;;;21.31;81.32;100953.66;5003918;28;20046;-74
2023/06/26 01:52:58;;;;;;;7.72;5.85;;;;;;;21.28;81.41;100955.94;5008931;28;20041;-74
2023/06/26 01:55:35;;;;;;;10.80;5.90;;;;;;;21.24;81.54;100960.84;5022366;28;20052;-73
2023/06/26 01:58:01;;;;;;;10.10;6.10;;;;;;;21.20;81.79;100964.97;5006872;28;20032;-74
2023/06/26 02:00:28;;;;;;;8.15;5.80;;;;;;;21.16;81.75;100963.81;5007339;28;20038;-74
2023/06/26 02:02:53;;;;;;;9.35;5.65;;;;;;;21.10;81.98;100962.88;5005034;28;20436;-74
2023/06/26 02:05:19;;;;;;;8.50;6.00;;;;;;;21.06;82.56;100953.81;5013600;28;20064;-73
2023/06/26 02:07:44;;;;;;;8.68;5.95;;;;;;;21.00;82.64;100966.03;4992341;28;20033;-76
2023/06/26 02:10:10;;;;;;;8.48;6.38;;;;;;;21.00;82.74;100967.84;5009048;28;20045;-75
2023/06/26 02:12:37;;;;;;;10.95;6.15;;;;;;;20.99;83.00;100974.16;5003961;28;20392;-74
2023/06/26 02:15:04;;;;;;;11.85;6.45;;;;;;;20.98;82.70;100983.06;5001446;28;20052;-74
2023/06/26 02:17:30;;;;;;;10.15;6.63;;;;;;;20.94;83.30;100981.91;4991467;28;20068;-74
2023/06/26 02:19:55;;;;;;;10.13;6.80;;;;;;;20.89;82.84;100987.03;4989409;28;20476;-74
2023/06/26 02:22:21;;;;;;;14.02;6.28;;;;;;;20.84;82.23;100982.44;5004762;28;20045;-73
2023/06/26 02:24:47;;;;;;;9.75;6.32;;;;;;;20.82;80.93;100976.56;5004194;28;20045;-74
2023/06/26 02:27:13;;;;;;;6.80;5.35;;;;;;;20.84;78.10;100985.06;4991336;28;20033;-74
2023/06/26 02:29:38;;;;;;;8.25;6.25;;;;;;;20.83;77.92;100980.81;4989862;28;20034;-74
2023/06/26 02:32:07;;;;;;;8.77;5.38;;;;;;;20.84;76.87;100984.25;5005383;28;20026;-74
2023/06/26 02:34:34;;;;;;;9.13;6.38;;;;;;;20.93;75.75;100985.59;4986093;28;20046;-74
2023/06/26 02:37:00;;;;;;;7.60;5.47;;;;;;;20.92;75.58;100989.22;4990816;28;20431;-73
2023/06/26 02:39:26;;;;;;;9.43;5.28;;;;;;;20.93;76.02;101001.41;5017925;28;20060;-74
2023/06/26 02:41:52;;;;;;;8.00;4.95;;;;;;;20.90;76.12;101005.25;5008212;28;20026;-74
2023/06/26 02:44:18;;;;;;;8.05;5.80;;;;;;;20.89;76.54;101011.56;4988318;28;20044;-74
2023/06/26 02:46:44;;;;;;;7.43;5.40;;;;;;;20.90;76.27;101002.63;5009848;28;20041;-74
2023/06/26 02:49:09;;;;;;;8.75;5.70;;;;;;;20.90;76.39;101007.91;5005982;28;20042;-75
2023/06/26 02:51:35;;;;;;;7.55;5.53;;;;;;;20.91;76.67;101019.25;5001522;28;20076;-74
2023/06/26 02:54:07;;;;;;;6.95;5.28;;;;;;;20.90;77.12;101028.19;5010084;28;20047;-74
2023/06/26 02:56:33;;;;;;;8.95;5.85;;;;;;;20.88;77.41;101025.75;5009014;28;20496;-73
2023/06/26 02:58:59;;;;;;;7.05;5.47;;;;;;;20.85;77.48;101023.59;4995125;28;21952;-74
2023/06/26 03:01:27;;;;;;;11.98;6.55;;;;;;;20.89;77.63;101029.19;5010325;28;20104;-74
2023/06/26 03:03:52;;;;;;;7.18;5.90;;;;;;;20.84;78.36;101029.06;5014805;28;20046;-74
2023/06/26 03:06:18;;;;;;;12.18;6.47;;;;;;;20.89;78.19;101027.38;5008397;28;20037;-74
2023/06/26 03:08:44;;;;;;;8.05;5.88;;;;;;;20.86;78.37;101029.66;5006049;28;20073;-74
2023/06/26 03:11:11;;;;;;;8.02;6.18;;;;;;;20.85;78.45;101034.13;5012361;28;20030;-73
2023/06/26 03:13:38;;;;;;;8.00;6.10;;;;;;;20.87;78.89;101033.88;5013030;28;20070;-74
2023/06/26 03:16:05;;;;;;;9.10;6.13;;;;;;;20.83;79.24;101033.50;4991517;28;20030;-74
2023/06/26 03:18:30;;;;;;;10.30;6.25;;;;;;;20.83;79.39;101030.06;5008351;28;20052;-74
2023/06/26 03:20:56;;;;;;;9.73;5.82;;;;;;;20.85;79.52;101033.28;5011433;28;20021;-74
2023/06/26 03:23:24;;;;;;;8.63;6.38;;;;;;;20.84;79.63;101034.34;5009791;28;20091;-73
2023/06/26 03:25:50;;;;;;;9.95;6.45;;;;;;;20.86;80.19;101038.34;4996911;28;20021;-74
2023/06/26 03:28:25;;;;;;;7.72;6.10;;;;;;;20.83;80.31;101045.88;5022107;28;20050;-74
2023/06/26 03:30:50;;;;;;;12.20;6.25;;;;;;;20.79;79.91;101048.97;5007761;28;20032;-74
2023/06/26 03:33:17;;;;;;;9.85;5.65;;;;;;;20.77;80.14;101050.19;5006965;28;20034;-74
2023/06/26 03:35:43;;;;;;;10.88;6.15;;;;;;;20.75;79.78;101053.03;4994633;28;20029;-75
2023/06/26 03:38:11;;;;;;;9.82;6.22;;;;;;;20.70;80.28;101055.53;5007121;28;20135;-74
2023/06/26 03:40:37;;;;;;;10.00;5.60;;;;;;;20.68;80.74;101057.59;5005638;28;20469;-73
2023/06/26 03:43:02;;;;;;;8.50;5.82;;;;;;;20.68;80.41;101057.59;5025112;28;20041;-74
2023/06/26 03:45:35;;;;;;;;;;;;;;;20.68;80.46;101065.50;4993492;28;20674;-74
2023/06/26 03:48:01;;;;;;;8.30;5.40;;;;;;;20.69;80.40;101069.72;5008577;28;19957;-73
2023/06/26 03:50:26;;;;;;;8.50;5.80;;;;;;;20.77;80.44;101071.28;5023250;28;20050;-75
2023/06/26 03:52:54;;;;;;;8.27;5.65;;;;;;;20.76;79.58;101070.47;5010489;28;20092;-74
2023/06/26 03:55:20;;;;;;;8.35;5.45;;;;;;;20.71;79.38;101067.69;5007734;28;20050;-74
2023/06/26 03:57:46;;;;;;;9.52;5.35;;;;;;;20.70;79.52;101075.78;5011653;28;20026;-73
2023/06/26 04:00:13;;;;;;;7.75;4.88;;;;;;;20.72;79.14;101079.00;5012538;28;20501;-74
2023/06/26 04:02:42;;;;;;;7.97;5.00;;;;;;;20.75;78.99;101089.94;5009856;28;20462;-74
2023/06/26 04:05:08;;;;;;;10.35;5.80;;;;;;;20.84;79.01;101087.03;5010602;28;20049;-74
2023/06/26 04:07:35;;;;;;;8.45;4.80;;;;;;;20.80;79.05;101089.28;4989826;28;20026;-73
2023/06/26 04:10:01;;;;;;;10.80;5.25;;;;;;;20.79;78.54;101087.66;4992762;28;20054;-74
2023/06/26 04:12:27;;;;;;;9.80;5.38;;;;;;;20.84;78.41;101094.94;5006660;28;20026;-74
2023/06/26 04:14:52;;;;;;;6.88;4.97;;;;;;;20.76;78.57;101094.19;5012166;28;20041;-75
2023/06/26 04:17:18;;;;;;;11.60;5.65;;;;;;;20.74;78.48;101090.97;5006136;28;20455;-74
2023/06/26 04:19:43;;;;;;;8.82;5.40;;;;;;;20.75;78.77;101097.03;5009061;28;20054;-74
2023/06/26 04:22:09;;;;;;;8.02;5.38;;;;;;;20.81;77.70;101093.53;5010296;28;20048;-74
2023/06/26 04:24:34;;;;;;;8.00;4.85;;;;;;;20.74;77.83;101090.16;5009043;28;20456;-74
2023/06/26 04:27:00;;;;;;;9.32;4.63;;;;;;;20.84;77.84;101095.75;5006358;28;20034;-74
2023/06/26 04:29:27;;;;;;;8.90;5.35;;;;;;;20.85;77.42;101091.28;5003792;28;20046;-74
2023/06/26 04:31:57;;;;;;;7.72;5.15;;;;;;;20.75;77.34;101092.56;5010957;28;20021;-73
2023/06/26 04:34:23;;;;;;;7.30;4.85;;;;;;;20.79;77.03;101096.41;5010136;28;20504;-74
2023/06/26 04:36:50;;;;;;;13.77;5.30;;;;;;;20.72;76.60;101089.56;5012259;28;20033;-74
2023/06/26 04:39:16;;;;;;;7.20;4.03;;;;;;;20.66;76.49;101095.69;5006967;28;20034;-73
2023/06/26 04:41:42;;;;;;;7.25;4.05;;;;;;;20.70;76.79;101096.88;5007177;28;20099;-74
2023/06/26 04:44:08;;;;;;;8.52;4.25;;;;;;;20.69;75.76;101097.91;4990610;28;20050;-73
2023/06/26 04:46:33;;;;;;;9.18;4.85;;;;;;;20.69;75.95;101096.06;4991454;28;20040;-74
2023/06/26 04:48:59;;;;;;;6.78;4.18;;;;;;;20.72;76.08;101100.09;5007619;28;20053;-73
2023/06/26 04:51:26;;;;;;;7.40;4.70;;;;;;;20.75;75.78;101103.09;5008339;28;20038;-74
2023/06/26 04:53:52;;;;;;;8.80;4.65;;;;;;;20.78;75.81;101104.53;5006196;28;20052;-73
2023/06/26 04:56:18;;;;;;;8.27;4.90;;;;;;;20.94;75.24;101114.47;5005218;28;20042;-74
2023/06/26 04:58:43;;;;;;;6.20;4.35;;;;;;;20.86;74.70;101109.50;5003840;28;20053;-73
2023/06/26 05:01:10;;;;;;;7.90;4.25;;;;;;;20.81;75.17;101109.34;5002939;28;20037;-73
2023/06/26 05:03:36;;;;;;;9.85;4.32;;;;;;;20.88;75.58;101111.94;5010431;28;20504;-73
2023/06/26 05:06:02;;;;;;;8.02;4.43;;;;;;;20.75;74.40;101120.75;5008682;28;20451;-74
2023/06/26 05:08:27;;;;;;;7.22;4.18;;;;;;;20.80;74.81;101119.06;5005315;28;20049;-74
2023/06/26 05:10:53;;;;;;;9.57;4.28;;;;;;;20.84;74.92;101126.56;5006357;28;20392;-73
2023/06/26 05:13:19;;;;;;;6.75;4.32;;;;;;;20.71;74.24;101128.28;5007551;28;20662;-74
2023/06/26 05:15:48;;;;;;;7.32;4.22;;;;;;;20.70;74.77;101134.59;5010410;28;20029;-73
2023/06/26 05:18:14;;;;;;;11.15;4.65;;;;;;;20.65;74.88;101138.88;4991233;28;20030;-70
2023/06/26 05:20:40;;;;;;;9.48;4.50;;;;;;;20.65;75.84;101147.59;5005482;28;20378;-74
2023/06/26 05:23:07;;;;;;;9.05;4.13;;;;;;;20.68;75.35;101141.91;4990804;28;20030;-73
2023/06/26 05:25:34;;;;;;;8.38;4.35;;;;;;;20.74;75.59;101148.13;5021991;28;20049;-73
2023/06/26 05:28:00;;;;;;;7.15;3.95;;;;;;;20.69;76.10;101146.13;5004962;28;20038;-74
2023/06/26 05:30:26;;;;;;;7.95;6.10;;;;;;;20.72;75.94;101143.06;5005693;28;20042;-73
2023/06/26 05:32:53;;;;;;;8.65;4.20;;;;;;;20.77;76.41;101145.03;5006462;28;20492;-73
2023/06/26 05:35:21;;;;;;;10.60;4.20;;;;;;;20.84;76.50;101143.16;5003536;28;20049;-74
2023/06/26 05:37:49;;;;;;;7.38;4.57;;;;;;;21.08;75.36;101151.25;5004509;28;20026;-74
2023/06/26 05:40:15;;;;;;;9.38;4.40;;;;;;;21.14;74.86;101151.22;4992364;28;20087;-73
2023/06/26 05:42:41;;;;;;;6.30;4.40;;;;;;;21.08;74.95;101143.34;5004285;28;20045;-74
2023/06/26 05:45:07;;;;;;;12.88;5.22;;;;;;;21.04;75.55;101140.38;5004323;28;20069;-74
2023/06/26 05:47:33;;;;;;;15.57;5.47;;;;;;;20.93;76.24;101151.63;5003460;28;20117;-74
2023/06/26 05:49:59;;;;;;;7.70;4.53;;;;;;;20.89;76.21;101142.50;5004619;28;20115;-73
2023/06/26 05:52:25;;;;;;;8.13;4.00;;;;;;;20.78;77.36;101154.59;5004724;28;20069;-73
2023/06/26 05:54:50;;;;;;;9.18;4.70;;;;;;;20.86;77.50;101174.59;5002825;28;20058;-74
2023/06/26 05:57:17;;;;;;;7.78;4.55;;;;;;;20.91;77.18;101165.00;5020826;28;20030;-73
2023/06/26 05:59:43;;;;;;;11.48;4.65;;;;;;;21.03;76.95;101166.94;5006913;28;20045;-74
2023/06/26 06:02:08;;;;;;;8.38;4.38;;;;;;;21.33;76.50;101167.06;5002830;28;20025;-74
2023/06/26 06:04:35;;;;;;;13.38;4.50;;;;;;;21.49;75.19;101168.34;4987299;28;20091;-74
2023/06/26 06:07:00;;;;;;;12.95;4.78;;;;;;;21.70;74.40;101173.19;5007198;28;20026;-74
2023/06/26 06:09:26;;;;;;;14.82;4.60;;;;;;;21.96;73.73;101173.88;5002123;28;20056;-75
2023/06/26 06:11:51;;;;;;;16.80;4.40;;;;;;;22.16;72.77;101170.97;5008530;28;20036;-74
2023/06/26 06:14:17;;;;;;;10.90;3.88;;;;;;;22.37;71.72;101164.41;4990981;28;20042;-75
2023/06/26 06:16:42;;;;;;;9.55;4.53;;;;;;;22.47;72.04;101179.72;4989398;28;20477;-73
2023/06/26 06:19:10;;;;;;;9.90;4.43;;;;;;;22.49;71.23;101186.41;5000006;28;20046;-72
2023/06/26 06:21:36;;;;;;;10.30;3.95;;;;;;;22.40;71.20;101187.75;4999301;28;20041;-72
2023/06/26 06:24:01;;;;;;;10.70;4.60;;;;;;;22.27;71.00;101193.22;5004813;28;20054;-75
2023/06/26 06:26:27;;;;;;;16.13;4.65;;;;;;;22.17;71.47;101183.97;5004118;28;20432;-74
2023/06/26 06:28:52;;;;;;;16.10;5.00;;;;;;;22.45;70.65;101192.34;5019168;28;20049;-74
2023/06/26 06:31:18;;;;;;;10.88;4.90;;;;;;;22.62;69.67;101195.16;5005679;28;20740;-74
2023/06/26 06:33:43;;;;;;;16.45;4.35;;;;;;;22.74;69.66;101198.63;5004511;28;20424;-73
2023/06/26 06:36:09;;;;;;;12.88;4.70;;;;;;;22.72;69.76;101204.13;5012558;28;20025;-74
2023/06/26 06:38:34;;;;;;;13.80;4.28;;;;;;;23.02;68.93;101208.53;5000627;28;20038;-76
2023/06/26 06:41:00;;;;;;;8.88;4.57;;;;;;;23.30;67.59;101220.28;5009153;28;20044;-73
2023/06/26 06:43:25;;;;;;;14.80;4.07;;;;;;;23.47;66.84;101226.50;5010451;28;20040;-73
2023/06/26 06:45:51;;;;;;;8.85;4.20;;;;;;;23.56;66.51;101231.44;5008472;28;20033;-73
2023/06/26 06:48:16;;;;;;;11.90;4.00;;;;;;;23.49;66.21;101235.03;5004314;28;20060;-73
2023/06/26 06:50:42;;;;;;;11.32;4.00;;;;;;;23.43;67.02;101235.97;5004938;28;20723;-74
2023/06/26 06:53:08;;;;;;;10.02;3.75;;;;;;;23.74;66.19;101236.59;5007137;28;20613;-76
2023/06/26 06:55:33;;;;;;;10.20;3.88;;;;;;;24.04;65.48;101227.69;5003682;28;20048;-75
2023/06/26 06:57:59;;;;;;;11.38;4.03;;;;;;;24.08;64.24;101232.28;4995153;28;20673;-74
2023/06/26 07:00:24;;;;;;;13.88;4.32;;;;;;;24.24;64.79;101240.50;5003488;28;20058;-75
2023/06/26 07:02:50;;;;;;;9.55;3.85;;;;;;;24.55;63.90;101244.56;4991392;28;20034;-74
2023/06/26 07:05:16;;;;;;;16.60;4.88;;;;;;;24.88;62.05;101229.69;4994580;28;20050;-74
2023/06/26 07:07:41;;;;;;;8.45;4.13;;;;;;;25.05;60.87;101240.31;4988721;28;20509;-78
2023/06/26 07:10:09;;;;;;;10.68;4.85;;;;;;;25.28;60.06;101239.38;5008992;28;20115;-73
2023/06/26 07:12:36;;;;;;;6.70;4.13;;;;;;;25.48;60.22;101238.03;4988513;28;20041;-73
2023/06/26 07:15:02;;;;;;;15.13;5.00;;;;;;;25.61;59.26;101238.47;4998927;28;20065;-74
2023/06/26 07:17:28;;;;;;;10.98;4.45;;;;;;;25.78;58.96;101233.09;5021168;28;20036;-75
2023/06/26 07:19:53;;;;;;;14.70;4.00;;;;;;;25.97;58.09;101232.81;5003908;28;20125;-73
2023/06/26 07:22:20;;;;;;;10.30;4.50;;;;;;;26.17;57.17;101227.75;5004355;28;20038;-74
2023/06/26 07:24:47;;;;;;;12.48;4.60;;;;;;;25.88;58.41;101239.59;5010760;28;20055;-74
2023/06/26 07:27:14;;;;;;;10.93;4.25;;;;;;;25.97;58.24;101238.13;5005984;28;20069;-75
2023/06/26 07:29:39;;;;;;;10.50;4.00;;;;;;;25.77;59.50;101239.47;4988987;28;20049;-74
2023/06/26 07:32:05;;;;;;;12.35;4.35;;;;;;;25.20;60.61;101255.66;5010382;28;20107;-74
2023/06/26 07:34:31;;;;;;;17.05;5.30;;;;;;;24.68;62.13;101262.00;5004966;28;20072;-73
2023/06/26 07:36:56;;;;;;;12.18;4.47;;;;;;;24.29;64.16;101265.25;5005143;28;20030;-74
2023/06/26 07:39:21;;;;;;;13.65;4.18;;;;;;;24.12;64.72;101259.09;5002528;28;20097;-74
2023/06/26 07:41:47;;;;;;;14.30;4.97;;;;;;;24.33;64.54;101260.28;5006043;28;20030;-73
2023/06/26 07:44:12;;;;;;;10.60;4.55;;;;;;;24.98;62.27;101261.72;5012407;28;20057;-74
2023/06/26 07:46:39;;;;;;;16.15;4.85;;;;;;;25.51;60.71;101270.22;5007120;28;20026;-73
2023/06/26 07:49:04;;;;;;;12.07;4.60;;;;;;;25.83;60.22;101278.31;4996148;28;20427;-75
2023/06/26 07:51:30;;;;;;;9.48;4.78;;;;;;;26.51;57.18;101267.41;5014697;28;20038;-73
2023/06/26 07:53:55;;;;;;;13.75;4.68;;;;;;;26.28;57.28;101278.34;4991524;28;20554;-74
2023/06/26 07:56:21;;;;;;;13.43;4.28;;;;;;;25.79;59.01;101289.69;5009978;28;20029;-73
2023/06/26 07:58:46;;;;;;;15.05;4.82;;;;;;;25.21;60.04;101291.75;5006050;28;20046;-74
2023/06/26 08:01:11;;;;;;;15.75;4.63;;;;;;;24.86;61.77;101298.09;5005868;28;20040;-74
2023/06/26 08:03:37;;;;;;;15.80;4.32;;;;;;;24.46;62.98;101301.59;5010265;28;20416;-76
2023/06/26 08:06:03;;;;;;;15.35;4.63;;;;;;;24.56;62.80;101296.50;4995219;28;20553;-76
2023/06/26 08:08:29;;;;;;;15.73;4.80;;;;;;;24.42;62.87;101295.16;5013883;28;20455;-75
2023/06/26 08:10:54;;;;;;;10.18;3.80;;;;;;;24.43;61.84;101299.41;5011159;28;20058;-74
2023/06/26 08:13:20;;;;;;;12.00;3.40;;;;;;;24.22;62.52;101304.34;5009807;28;20044;-75
2023/06/26 08:15:45;;;;;;;11.73;3.38;;;;;;;23.99;63.57;101307.81;5012048;28;20026;-73
2023/06/26 08:18:10;;;;;;;10.23;3.50;;;;;;;23.85;63.00;101304.63;5006110;28;20770;-74
2023/06/26 08:20:36;;;;;;;14.20;4.55;;;;;;;23.63;63.51;101300.94;5015793;28;20026;-74
2023/06/26 08:23:04;;;;;;;10.82;4.30;;;;;;;23.59;64.16;101307.75;5010177;28;20031;-76
2023/06/26 08:25:29;;;;;;;17.38;3.85;;;;;;;23.41;65.61;101312.09;5011213;28;20073;-76
2023/06/26 08:27:55;;;;;;;10.27;3.58;;;;;;;23.32;65.81;101316.94;4996821;28;20036;-74
2023/06/26 08:30:21;;;;;;;21.77;3.38;;;;;;;23.42;66.54;101319.00;5009719;28;20054;-75
2023/06/26 08:32:47;;;;;;;11.43;3.05;;;;;;;23.65;65.86;101312.09;5015066;28;20025;-75
2023/06/26 08:35:12;;;;;;;11.27;3.90;;;;;;;24.43;62.55;101312.66;5012452;28;20202;-75
2023/06/26 08:37:38;;;;;;;20.38;4.18;;;;;;;25.05;60.36;101319.88;5012619;28;20044;-75
2023/06/26 08:40:04;;;;;;;16.83;3.55;;;;;;;25.47;59.19;101313.38;5008676;28;20041;-73
2023/06/26 08:42:29;;;;;;;16.90;4.40;;;;;;;25.93;57.99;101314.06;5009218;28;20037;-74
2023/06/26 08:44:55;;;;;;;9.45;3.47;;;;;;;25.23;58.62;101322.34;5008843;28;20054;-75
2023/06/26 08:47:21;;;;;;;14.38;3.80;;;;;;;25.09;60.01;101330.81;5011215;28;20179;-74
2023/06/26 08:49:50;;;;;;;9.48;3.10;;;;;;;25.60;56.88;101336.97;5009208;28;20120;-76
2023/06/26 08:52:22;;;;;;;6.65;2.75;;;;;;;25.97;55.98;101315.97;5005598;28;20038;-73
2023/06/26 08:54:55;;;;;;;6.70;2.45;;;;;;;26.66;54.48;101324.50;4994344;28;20053;-75
2023/06/26 08:57:22;;;;;;;;;;;;;;;26.77;54.61;101336.84;5012270;28;20524;-75
2023/06/26 08:59:48;;;;;;;11.07;2.90;;;;;;;26.64;53.76;101330.06;5006196;28;20006;-75
2023/06/26 09:02:14;;;;;;;17.13;3.50;;;;;;;26.31;55.49;101329.13;5010312;28;20141;-74
2023/06/26 09:04:40;;;;;;;10.95;3.60;;;;;;;26.66;53.66;101325.28;5007744;28;20056;-75
2023/06/26 09:07:05;;;;;;;8.02;2.50;;;;;;;27.03;52.88;101321.91;5007078;28;20046;-75
2023/06/26 09:09:31;;;;;;;5.68;2.45;;;;;;;26.86;52.06;101316.69;5005394;28;20060;-76
2023/06/26 09:11:56;;;;;;;10.23;2.85;;;;;;;26.87;51.89;101318.28;4990947;28;20042;-74
2023/06/26 09:14:22;;;;;;;8.13;2.60;;;;;;;26.60;53.73;101329.75;5006416;28;20058;-74
2023/06/26 09:16:48;;;;;;;11.10;3.30;;;;;;;26.50;53.55;101323.47;4991630;28;20025;-76
2023/06/26 09:19:14;;;;;;;7.93;2.42;;;;;;;27.21;53.21;101322.56;5004014;28;20763;-75
2023/06/26 09:21:41;;;;;;;9.23;2.47;;;;;;;27.50;51.32;101323.88;5008661;28;20025;-76
2023/06/26 09:24:10;;;;;;;8.25;2.38;;;;;;;27.35;51.29;101313.09;4990641;28;20678;-74
2023/06/26 09:26:40;;;;;;;7.45;2.67;;;;;;;26.93;51.71;101338.56;5008109;28;20048;-73
2023/06/26 09:29:06;;;;;;;6.28;2.30;;;;;;;27.10;50.04;101333.09;5021328;28;20141;-74
2023/06/26 09:31:38;;;;;;;7.55;2.30;;;;;;;27.43;51.79;101338.47;5004252;28;20040;-74
2023/06/26 09:34:04;;;;;;;8.75;2.30;;;;;;;27.66;51.46;101332.72;5002698;28;20053;-75
2023/06/26 09:36:36;;;;;;;9.95;2.47;;;;;;;27.43;51.79;101339.25;4991815;28;20112;-74
2023/06/26 09:39:04;;;;;;;7.70;2.33;;;;;;;27.40;50.07;101342.41;5006923;28;20081;-75
2023/06/26 09:41:30;;;;;;;21.05;8.45;;;;;;;27.32;49.30;101338.38;4989342;28;20026;-74
2023/06/26 09:44:02;;;;;;;11.02;2.80;;;;;;;26.84;51.29;101334.75;5006510;28;20408;-73
2023/06/26 09:46:29;;;;;;;6.32;2.08;;;;;;;27.12;50.90;101346.97;5002937;28;20045;-74
2023/06/26 09:49:05;;;;;;;10.13;2.72;;;;;;;27.69;50.22;101340.22;5020272;28;20530;-75
2023/06/26 09:51:32;;;;;;;10.57;2.20;;;;;;;27.15;50.72;101345.66;5000028;28;20755;-74
2023/06/26 09:53:58;;;;;;;11.57;2.45;;;;;;;27.12;50.37;101356.81;5006868;28;20048;-73
2023/06/26 09:56:24;;;;;;;11.05;2.03;;;;;;;26.68;50.60;101359.59;5006666;28;20457;-74
2023/06/26 09:58:50;;;;;;;9.93;2.00;;;;;;;26.50;53.08;101358.84;5020851;28;20081;-74
2023/06/26 10:01:17;;;;;;;10.80;2.28;;;;;;;26.18;51.48;101358.72;5011601;28;20022;-75
2023/06/26 10:03:43;;;;;;;4.97;2.00;;;;;;;26.58;49.68;101349.66;4989772;28;20072;-73
2023/06/26 10:06:11;;;;;;;4.68;1.90;;;;;;;26.92;49.37;101358.25;5007755;28;20404;-75
2023/06/26 10:08:39;;;;;;;5.72;2.00;;;;;;;27.11;49.13;101352.56;5010903;28;20451;-73
2023/06/26 10:11:05;;;;;;;8.95;2.13;;;;;;;27.36;48.42;101347.44;4993056;28;20065;-75
2023/06/26 10:13:39;;;;;;;9.65;2.50;;;;;;;27.54;49.18;101364.09;4989097;28;20133;-74
2023/06/26 10:16:08;;;;;;;3.67;1.80;;;;;;;26.78;48.89;101373.00;5003038;28;20030;-74
2023/06/26 10:18:38;;;;;;;5.55;1.58;;;;;;;26.44;49.52;101373.13;5006204;28;20061;-76
2023/06/26 10:21:05;;;;;;;6.90;2.10;;;;;;;26.95;49.42;101368.38;5006875;28;20026;-74
2023/06/26 10:23:31;;;;;;;5.32;1.45;;;;;;;26.49;49.59;101377.72;5004221;28;20097;-78
2023/06/26 10:25:58;;;;;;;6.47;1.75;;;;;;;26.01;49.20;101374.72;5011090;28;20037;-77
2023/06/26 10:28:28;;;;;;;3.17;1.60;;;;;;;26.39;48.57;101373.91;5007301;28;20069;-74
2023/06/26 10:30:55;;;;;;;3.45;1.20;;;;;;;26.98;47.64;101375.06;5010814;28;20034;-73
2023/06/26 10:33:21;;;;;;;5.03;1.50;;;;;;;27.13;45.64;101369.06;5009849;28;20034;-75
2023/06/26 10:35:47;;;;;;;4.85;1.60;;;;;;;27.14;44.97;101366.16;5008346;28;20404;-76
2023/06/26 10:38:13;;;;;;;4.60;1.40;;;;;;;26.89;45.57;101363.25;5001369;28;20041;-74
2023/06/26 10:40:46;;;;;;;3.17;1.40;;;;;;;27.04;45.58;101368.72;5005238;28;20026;-75
2023/06/26 10:43:15;;;;;;;5.00;1.38;;;;;;;27.03;43.00;101367.13;5008863;28;20083;-75
2023/06/26 10:45:46;;;;;;;3.20;1.20;;;;;;;27.36;42.35;101362.63;5002332;28;20026;-75
2023/06/26 10:48:14;;;;;;;5.80;1.10;;;;;;;27.67;42.18;101358.31;5005228;28;20512;-73
2023/06/26 10:50:40;;;;;;;5.32;1.08;;;;;;;27.67;42.52;101363.66;5019520;28;20108;-74
2023/06/26 10:53:33;;;;;;;4.65;1.42;;;;;;;27.25;42.32;101377.72;5007291;28;20038;-75
2023/06/26 10:56:00;;;;;;;1.75;1.02;;;;;;;27.42;41.80;101377.56;5007605;28;20057;-76
2023/06/26 10:58:27;;;;;;;3.55;1.20;;;;;;;27.63;40.56;101388.38;5007970;28;20049;-74
2023/06/26 11:01:13;;;;;;;2.78;1.02;;;;;;;27.76;39.69;101378.09;5010081;28;20132;-75
2023/06/26 11:03:40;;;;;;;4.53;1.38;;;;;;;27.29;41.22;101394.78;5003556;28;20145;-74
2023/06/26 11:06:17;;;;;;;5.35;1.10;;;;;;;27.02;42.33;101399.31;5026536;28;20052;-75
2023/06/26 11:08:51;;;;;;;2.90;1.17;;;;;;;26.67;42.34;101409.31;5002847;28;20061;-72
2023/06/26 11:11:17;;;;;;;1.77;1.00;;;;;;;26.67;43.49;101403.19;5006177;28;20029;-74
2023/06/26 11:13:44;;;;;;;2.42;0.93;;;;;;;26.77;42.23;101398.00;5005747;28;20087;-74
2023/06/26 11:16:11;;;;;;;8.05;1.10;;;;;;;27.09;42.48;101392.72;5009537;28;20115;-73
2023/06/26 11:18:37;;;;;;;7.85;1.60;;;;;;;27.26;42.69;101402.50;5012209;28;20042;-75
2023/06/26 11:21:06;;;;;;;5.15;1.33;;;;;;;27.11;41.70;101398.59;5011657;28;20048;-75